sensor_id;sensor_type;location;lat;lon;timestamp;P1;durP1;ratioP1;P2;durP2;ratioP2
68375;SDS011;55318;52.068;5.188;2024-03-08T00:00:37;27.4;;;13.6;;
68375;SDS011;55318;52.068;5.188;2024-03-08T00:02:13;23.2;;;12.8;;
68375;SDS011;55318;52.068;5.188;2024-03-08T00:05:25;26.6;;;13.1;;
68375;SDS011;55318;52.068;5.188;2024-03-08T00:07:01;25.9;;;13.6;;
68375;SDS011;55318;52.068;5.188;2024-03-08T00:08:38;26.4;;;13.4;;
68375;SDS011;55318;52.068;5.188;2024-03-08T00:10:14;27.3;;;13.7;;
68375;SDS011;55318;52.068;5.188;2024-03-08T00:13:26;30.3;;;13.6;;
68375;SDS011;55318;52.068;5.188;2024-03-08T00:15:03;31.6;;;14.5;;
68375;SDS011;55318;52.068;5.188;2024-03-08T00:16:40;26.1;;;13.0;;
68375;SDS011;55318;52.068;5.188;2024-03-08T00:19:52;24.3;;;12.3;;
68375;SDS011;55318;52.068;5.188;2024-03-08T00:21:28;28.4;;;13.6;;
68375;SDS011;55318;52.068;5.188;2024-03-08T00:23:04;26.4;;;12.8;;
68375;SDS011;55318;52.068;5.188;2024-03-08T00:26:16;24.6;;;13.6;;
68375;SDS011;55318;52.068;5.188;2024-03-08T00:27:52;27.9;;;12.7;;
68375;SDS011;55318;52.068;5.188;2024-03-08T00:29:28;27.0;;;13.6;;
68375;SDS011;55318;52.068;5.188;2024-03-08T00:31:04;27.5;;;13.9;;
68375;SDS011;55318;52.068;5.188;2024-03-08T00:34:17;35.21;;;15.4;;
68375;SDS011;55318;52.068;5.188;2024-03-08T00:35:53;27.1;;;14.1;;
68375;SDS011;55318;52.068;5.188;2024-03-08T00:37:29;25.3;;;13.8;;
68375;SDS011;55318;52.068;5.188;2024-03-08T00:40:41;25.9;;;13.9;;
68375;SDS011;55318;52.068;5.188;2024-03-08T00:42:17;25.9;;;13.9;;
68375;SDS011;55318;52.068;5.188;2024-03-08T00:43:54;26.6;;;13.6;;
68375;SDS011;55318;52.068;5.188;2024-03-08T00:47:06;24.7;;;13.4;;
68375;SDS011;55318;52.068;5.188;2024-03-08T00:48:43;23.5;;;12.3;;
68375;SDS011;55318;52.068;5.188;2024-03-08T00:50:20;27.7;;;14.5;;
68375;SDS011;55318;52.068;5.188;2024-03-08T00:53:32;26.3;;;13.1;;
68375;SDS011;55318;52.068;5.188;2024-03-08T00:55:08;28.2;;;14.0;;
68375;SDS011;55318;52.068;5.188;2024-03-08T00:56:44;27.1;;;13.9;;
68375;SDS011;55318;52.068;5.188;2024-03-08T00:58:20;30.4;;;14.0;;
68375;SDS011;55318;52.068;5.188;2024-03-08T01:01:32;27.9;;;13.0;;
68375;SDS011;55318;52.068;5.188;2024-03-08T01:03:09;22.8;;;13.0;;
68375;SDS011;55318;52.068;5.188;2024-03-08T01:04:45;24.5;;;12.8;;
68375;SDS011;55318;52.068;5.188;2024-03-08T01:07:57;32.3;;;14.1;;
68375;SDS011;55318;52.068;5.188;2024-03-08T01:09:33;26.5;;;13.8;;
68375;SDS011;55318;52.068;5.188;2024-03-08T01:11:09;25.6;;;13.8;;
68375;SDS011;55318;52.068;5.188;2024-03-08T01:14:21;28.5;;;13.7;;
68375;SDS011;55318;52.068;5.188;2024-03-08T01:15:58;28.0;;;14.0;;
68375;SDS011;55318;52.068;5.188;2024-03-08T01:17:34;26.2;;;14.6;;
68375;SDS011;55318;52.068;5.188;2024-03-08T01:20:46;27.6;;;13.9;;
68375;SDS011;55318;52.068;5.188;2024-03-08T01:22:23;30.0;;;14.0;;
68375;SDS011;55318;52.068;5.188;2024-03-08T01:23:59;26.2;;;14.3;;
68375;SDS011;55318;52.068;5.188;2024-03-08T01:25:36;23.3;;;13.2;;
68375;SDS011;55318;52.068;5.188;2024-03-08T01:28:48;28.1;;;13.3;;
68375;SDS011;55318;52.068;5.188;2024-03-08T01:30:25;31.2;;;15.3;;
68375;SDS011;55318;52.068;5.188;2024-03-08T01:32:01;25.5;;;13.5;;
68375;SDS011;55318;52.068;5.188;2024-03-08T01:35:13;30.3;;;14.5;;
68375;SDS011;55318;52.068;5.188;2024-03-08T01:36:49;27.0;;;13.8;;
68375;SDS011;55318;52.068;5.188;2024-03-08T01:38:26;27.0;;;13.8;;
68375;SDS011;55318;52.068;5.188;2024-03-08T01:41:38;25.7;;;14.0;;
68375;SDS011;55318;52.068;5.188;2024-03-08T01:43:18;27.8;;;14.0;;
68375;SDS011;55318;52.068;5.188;2024-03-08T01:44:54;25.2;;;12.8;;
68375;SDS011;55318;52.068;5.188;2024-03-08T01:46:30;29.7;;;14.2;;
68375;SDS011;55318;52.068;5.188;2024-03-08T01:49:43;29.0;;;13.9;;
68375;SDS011;55318;52.068;5.188;2024-03-08T01:51:20;26.4;;;14.0;;
68375;SDS011;55318;52.068;5.188;2024-03-08T01:52:56;32.4;;;15.0;;
68375;SDS011;55318;52.068;5.188;2024-03-08T01:56:11;26.2;;;14.1;;
68375;SDS011;55318;52.068;5.188;2024-03-08T01:57:47;25.3;;;13.6;;
68375;SDS011;55318;52.068;5.188;2024-03-08T01:59:23;29.1;;;14.0;;
68375;SDS011;55318;52.068;5.188;2024-03-08T02:02:41;28.7;;;14.0;;
68375;SDS011;55318;52.068;5.188;2024-03-08T02:04:18;29.9;;;15.1;;
68375;SDS011;55318;52.068;5.188;2024-03-08T02:05:54;26.2;;;13.6;;
68375;SDS011;55318;52.068;5.188;2024-03-08T02:07:30;27.5;;;14.5;;
68375;SDS011;55318;52.068;5.188;2024-03-08T02:10:43;23.1;;;12.7;;
68375;SDS011;55318;52.068;5.188;2024-03-08T02:12:20;32.6;;;15.1;;
68375;SDS011;55318;52.068;5.188;2024-03-08T02:13:57;27.6;;;14.3;;
68375;SDS011;55318;52.068;5.188;2024-03-08T02:17:38;28.9;;;13.6;;
68375;SDS011;55318;52.068;5.188;2024-03-08T02:19:14;30.6;;;14.4;;
68375;SDS011;55318;52.068;5.188;2024-03-08T02:20:50;27.3;;;14.8;;
68375;SDS011;55318;52.068;5.188;2024-03-08T02:22:27;25.9;;;14.1;;
68375;SDS011;55318;52.068;5.188;2024-03-08T02:24:04;26.3;;;13.3;;
68375;SDS011;55318;52.068;5.188;2024-03-08T02:27:22;27.0;;;14.4;;
68375;SDS011;55318;52.068;5.188;2024-03-08T02:28:59;25.6;;;14.7;;
68375;SDS011;55318;52.068;5.188;2024-03-08T02:30:35;26.9;;;13.9;;
68375;SDS011;55318;52.068;5.188;2024-03-08T02:33:47;31.1;;;14.6;;
68375;SDS011;55318;52.068;5.188;2024-03-08T02:35:23;25.2;;;13.5;;
68375;SDS011;55318;52.068;5.188;2024-03-08T02:36:59;30.3;;;14.2;;
68375;SDS011;55318;52.068;5.188;2024-03-08T02:40:11;24.7;;;13.9;;
68375;SDS011;55318;52.068;5.188;2024-03-08T02:41:47;25.9;;;13.4;;
68375;SDS011;55318;52.068;5.188;2024-03-08T02:43:23;23.6;;;14.0;;
68375;SDS011;55318;52.068;5.188;2024-03-08T02:44:59;24.1;;;14.3;;
68375;SDS011;55318;52.068;5.188;2024-03-08T02:48:12;23.1;;;13.7;;
68375;SDS011;55318;52.068;5.188;2024-03-08T02:49:50;28.3;;;13.7;;
68375;SDS011;55318;52.068;5.188;2024-03-08T02:51:26;28.1;;;14.3;;
68375;SDS011;55318;52.068;5.188;2024-03-08T02:54:39;27.2;;;13.5;;
68375;SDS011;55318;52.068;5.188;2024-03-08T02:56:15;23.9;;;14.7;;
68375;SDS011;55318;52.068;5.188;2024-03-08T02:57:51;28.3;;;14.3;;
68375;SDS011;55318;52.068;5.188;2024-03-08T03:01:04;29.1;;;14.5;;
68375;SDS011;55318;52.068;5.188;2024-03-08T03:02:40;24.0;;;13.6;;
68375;SDS011;55318;52.068;5.188;2024-03-08T03:04:16;27.2;;;14.8;;
68375;SDS011;55318;52.068;5.188;2024-03-08T03:07:28;27.5;;;14.0;;
68375;SDS011;55318;52.068;5.188;2024-03-08T03:09:04;25.1;;;13.4;;
68375;SDS011;55318;52.068;5.188;2024-03-08T03:10:40;26.7;;;14.1;;
68375;SDS011;55318;52.068;5.188;2024-03-08T03:12:16;25.1;;;14.2;;
68375;SDS011;55318;52.068;5.188;2024-03-08T03:15:28;29.5;;;14.4;;
68375;SDS011;55318;52.068;5.188;2024-03-08T03:17:04;25.7;;;14.2;;
68375;SDS011;55318;52.068;5.188;2024-03-08T03:18:41;26.8;;;14.6;;
68375;SDS011;55318;52.068;5.188;2024-03-08T03:21:54;24.8;;;14.2;;
68375;SDS011;55318;52.068;5.188;2024-03-08T03:23:30;24.4;;;14.3;;
68375;SDS011;55318;52.068;5.188;2024-03-08T03:25:06;27.8;;;14.4;;
68375;SDS011;55318;52.068;5.188;2024-03-08T03:28:19;28.5;;;15.1;;
68375;SDS011;55318;52.068;5.188;2024-03-08T03:29:55;25.1;;;13.4;;
68375;SDS011;55318;52.068;5.188;2024-03-08T03:31:32;24.6;;;14.2;;
68375;SDS011;55318;52.068;5.188;2024-03-08T03:33:08;23.4;;;13.2;;
68375;SDS011;55318;52.068;5.188;2024-03-08T03:36:21;30.2;;;14.4;;
68375;SDS011;55318;52.068;5.188;2024-03-08T03:37:57;26.4;;;14.9;;
68375;SDS011;55318;52.068;5.188;2024-03-08T03:39:33;24.6;;;14.4;;
68375;SDS011;55318;52.068;5.188;2024-03-08T03:42:45;26.0;;;13.5;;
68375;SDS011;55318;52.068;5.188;2024-03-08T03:44:21;25.7;;;14.9;;
68375;SDS011;55318;52.068;5.188;2024-03-08T03:45:57;26.3;;;13.7;;
68375;SDS011;55318;52.068;5.188;2024-03-08T03:49:09;27.8;;;15.2;;
68375;SDS011;55318;52.068;5.188;2024-03-08T03:50:46;23.4;;;13.5;;
68375;SDS011;55318;52.068;5.188;2024-03-08T03:52:22;27.6;;;15.2;;
68375;SDS011;55318;52.068;5.188;2024-03-08T03:55:34;22.9;;;13.2;;
68375;SDS011;55318;52.068;5.188;2024-03-08T03:57:10;26.6;;;13.5;;
68375;SDS011;55318;52.068;5.188;2024-03-08T03:58:46;26.0;;;14.4;;
68375;SDS011;55318;52.068;5.188;2024-03-08T04:00:22;23.1;;;13.2;;
68375;SDS011;55318;52.068;5.188;2024-03-08T04:03:34;22.5;;;13.2;;
68375;SDS011;55318;52.068;5.188;2024-03-08T04:05:11;26.0;;;14.6;;
68375;SDS011;55318;52.068;5.188;2024-03-08T04:06:47;29.8;;;14.1;;
68375;SDS011;55318;52.068;5.188;2024-03-08T04:09:59;24.1;;;14.7;;
68375;SDS011;55318;52.068;5.188;2024-03-08T04:11:35;26.1;;;14.5;;
68375;SDS011;55318;52.068;5.188;2024-03-08T04:13:11;28.5;;;15.0;;
68375;SDS011;55318;52.068;5.188;2024-03-08T04:16:23;22.1;;;13.2;;
68375;SDS011;55318;52.068;5.188;2024-03-08T04:17:59;25.1;;;14.2;;
68375;SDS011;55318;52.068;5.188;2024-03-08T04:19:35;24.0;;;13.3;;
68375;SDS011;55318;52.068;5.188;2024-03-08T04:21:11;24.6;;;15.0;;
68375;SDS011;55318;52.068;5.188;2024-03-08T04:24:24;25.9;;;14.4;;
68375;SDS011;55318;52.068;5.188;2024-03-08T04:26:00;28.2;;;14.4;;
68375;SDS011;55318;52.068;5.188;2024-03-08T04:27:37;27.3;;;14.2;;
68375;SDS011;55318;52.068;5.188;2024-03-08T04:30:50;25.8;;;13.3;;
68375;SDS011;55318;52.068;5.188;2024-03-08T04:32:26;25.9;;;14.6;;
68375;SDS011;55318;52.068;5.188;2024-03-08T04:34:02;24.4;;;13.7;;
68375;SDS011;55318;52.068;5.188;2024-03-08T04:37:14;23.3;;;13.8;;
68375;SDS011;55318;52.068;5.188;2024-03-08T04:38:51;25.1;;;13.5;;
68375;SDS011;55318;52.068;5.188;2024-03-08T04:40:27;25.0;;;13.4;;
68375;SDS011;55318;52.068;5.188;2024-03-08T04:43:41;25.6;;;14.3;;
68375;SDS011;55318;52.068;5.188;2024-03-08T04:45:17;24.1;;;14.1;;
68375;SDS011;55318;52.068;5.188;2024-03-08T04:46:53;25.9;;;14.4;;
68375;SDS011;55318;52.068;5.188;2024-03-08T04:48:29;27.6;;;15.5;;
68375;SDS011;55318;52.068;5.188;2024-03-08T04:51:42;25.9;;;14.8;;
68375;SDS011;55318;52.068;5.188;2024-03-08T04:53:18;23.0;;;14.6;;
68375;SDS011;55318;52.068;5.188;2024-03-08T04:58:07;25.2;;;14.4;;
68375;SDS011;55318;52.068;5.188;2024-03-08T04:59:43;25.3;;;14.3;;
68375;SDS011;55318;52.068;5.188;2024-03-08T05:01:19;23.3;;;14.1;;
68375;SDS011;55318;52.068;5.188;2024-03-08T05:04:31;29.7;;;14.8;;
68375;SDS011;55318;52.068;5.188;2024-03-08T05:06:07;25.0;;;14.1;;
68375;SDS011;55318;52.068;5.188;2024-03-08T05:07:43;27.7;;;14.5;;
68375;SDS011;55318;52.068;5.188;2024-03-08T05:09:20;23.8;;;14.3;;
68375;SDS011;55318;52.068;5.188;2024-03-08T05:12:33;25.6;;;14.0;;
68375;SDS011;55318;52.068;5.188;2024-03-08T05:14:09;28.7;;;14.8;;
68375;SDS011;55318;52.068;5.188;2024-03-08T05:15:47;26.9;;;14.5;;
68375;SDS011;55318;52.068;5.188;2024-03-08T05:19:00;24.6;;;14.3;;
68375;SDS011;55318;52.068;5.188;2024-03-08T05:20:36;26.7;;;15.6;;
68375;SDS011;55318;52.068;5.188;2024-03-08T05:22:12;27.5;;;13.9;;
68375;SDS011;55318;52.068;5.188;2024-03-08T05:25:27;24.9;;;14.4;;
68375;SDS011;55318;52.068;5.188;2024-03-08T05:27:03;26.5;;;15.1;;
68375;SDS011;55318;52.068;5.188;2024-03-08T05:28:40;21.3;;;14.1;;
68375;SDS011;55318;52.068;5.188;2024-03-08T05:30:16;25.3;;;14.4;;
68375;SDS011;55318;52.068;5.188;2024-03-08T05:33:29;25.7;;;13.8;;
68375;SDS011;55318;52.068;5.188;2024-03-08T05:35:05;26.7;;;14.7;;
68375;SDS011;55318;52.068;5.188;2024-03-08T05:36:41;30.0;;;15.4;;
68375;SDS011;55318;52.068;5.188;2024-03-08T05:39:53;27.8;;;15.7;;
68375;SDS011;55318;52.068;5.188;2024-03-08T05:41:30;29.2;;;15.2;;
68375;SDS011;55318;52.068;5.188;2024-03-08T05:43:06;23.2;;;14.0;;
68375;SDS011;55318;52.068;5.188;2024-03-08T05:46:18;26.2;;;15.3;;
68375;SDS011;55318;52.068;5.188;2024-03-08T05:47:54;26.2;;;15.3;;
68375;SDS011;55318;52.068;5.188;2024-03-08T05:49:30;21.5;;;14.0;;
68375;SDS011;55318;52.068;5.188;2024-03-08T05:52:42;24.8;;;14.9;;
68375;SDS011;55318;52.068;5.188;2024-03-08T05:54:18;27.1;;;14.6;;
68375;SDS011;55318;52.068;5.188;2024-03-08T05:55:55;27.2;;;14.5;;
68375;SDS011;55318;52.068;5.188;2024-03-08T05:57:32;26.7;;;13.7;;
68375;SDS011;55318;52.068;5.188;2024-03-08T06:00:44;26.6;;;15.1;;
68375;SDS011;55318;52.068;5.188;2024-03-08T06:02:20;27.1;;;14.8;;
68375;SDS011;55318;52.068;5.188;2024-03-08T06:03:56;25.6;;;15.1;;
68375;SDS011;55318;52.068;5.188;2024-03-08T06:07:08;26.1;;;14.7;;
68375;SDS011;55318;52.068;5.188;2024-03-08T06:08:44;23.9;;;14.1;;
68375;SDS011;55318;52.068;5.188;2024-03-08T06:10:20;24.8;;;14.2;;
68375;SDS011;55318;52.068;5.188;2024-03-08T06:13:33;25.7;;;14.4;;
68375;SDS011;55318;52.068;5.188;2024-03-08T06:15:10;27.7;;;14.6;;
68375;SDS011;55318;52.068;5.188;2024-03-08T06:16:47;24.5;;;14.4;;
68375;SDS011;55318;52.068;5.188;2024-03-08T06:18:23;24.1;;;15.0;;
68375;SDS011;55318;52.068;5.188;2024-03-08T06:21:35;22.8;;;15.3;;
68375;SDS011;55318;52.068;5.188;2024-03-08T06:23:11;26.3;;;14.3;;
68375;SDS011;55318;52.068;5.188;2024-03-08T06:24:47;28.3;;;13.8;;
68375;SDS011;55318;52.068;5.188;2024-03-08T06:28:01;28.5;;;14.7;;
68375;SDS011;55318;52.068;5.188;2024-03-08T06:29:37;24.7;;;15.3;;
68375;SDS011;55318;52.068;5.188;2024-03-08T06:31:13;28.3;;;15.3;;
68375;SDS011;55318;52.068;5.188;2024-03-08T06:34:25;28.3;;;15.3;;
68375;SDS011;55318;52.068;5.188;2024-03-08T06:36:01;23.0;;;13.9;;
68375;SDS011;55318;52.068;5.188;2024-03-08T06:37:37;27.1;;;15.0;;
68375;SDS011;55318;52.068;5.188;2024-03-08T06:40:49;24.7;;;14.4;;
68375;SDS011;55318;52.068;5.188;2024-03-08T06:42:26;26.9;;;14.7;;
68375;SDS011;55318;52.068;5.188;2024-03-08T06:44:02;26.8;;;14.9;;
68375;SDS011;55318;52.068;5.188;2024-03-08T06:45:39;25.8;;;14.6;;
68375;SDS011;55318;52.068;5.188;2024-03-08T06:48:51;26.4;;;15.0;;
68375;SDS011;55318;52.068;5.188;2024-03-08T06:50:27;28.9;;;14.9;;
68375;SDS011;55318;52.068;5.188;2024-03-08T06:52:03;26.5;;;14.5;;
68375;SDS011;55318;52.068;5.188;2024-03-08T06:55:16;26.2;;;14.8;;
68375;SDS011;55318;52.068;5.188;2024-03-08T06:56:53;21.9;;;12.8;;
68375;SDS011;55318;52.068;5.188;2024-03-08T06:58:29;26.0;;;14.2;;
68375;SDS011;55318;52.068;5.188;2024-03-08T07:01:43;25.2;;;14.7;;
68375;SDS011;55318;52.068;5.188;2024-03-08T07:03:19;26.8;;;14.4;;
68375;SDS011;55318;52.068;5.188;2024-03-08T07:04:55;24.7;;;14.7;;
68375;SDS011;55318;52.068;5.188;2024-03-08T07:06:31;23.0;;;15.6;;
68375;SDS011;55318;52.068;5.188;2024-03-08T07:09:44;25.3;;;13.8;;
68375;SDS011;55318;52.068;5.188;2024-03-08T07:11:20;26.0;;;13.9;;
68375;SDS011;55318;52.068;5.188;2024-03-08T07:12:57;27.8;;;13.8;;
68375;SDS011;55318;52.068;5.188;2024-03-08T07:16:09;26.5;;;13.9;;
68375;SDS011;55318;52.068;5.188;2024-03-08T07:17:45;25.5;;;14.2;;
68375;SDS011;55318;52.068;5.188;2024-03-08T07:19:22;26.3;;;15.2;;
68375;SDS011;55318;52.068;5.188;2024-03-08T07:22:34;26.6;;;14.3;;
68375;SDS011;55318;52.068;5.188;2024-03-08T07:24:10;25.3;;;13.7;;
68375;SDS011;55318;52.068;5.188;2024-03-08T07:25:48;24.5;;;15.0;;
68375;SDS011;55318;52.068;5.188;2024-03-08T07:27:24;26.3;;;14.0;;
68375;SDS011;55318;52.068;5.188;2024-03-08T07:30:36;25.4;;;14.2;;
68375;SDS011;55318;52.068;5.188;2024-03-08T07:32:12;25.9;;;14.4;;
68375;SDS011;55318;52.068;5.188;2024-03-08T07:33:48;25.4;;;13.9;;
68375;SDS011;55318;52.068;5.188;2024-03-08T07:37:00;25.9;;;14.2;;
68375;SDS011;55318;52.068;5.188;2024-03-08T07:38:36;26.5;;;14.9;;
68375;SDS011;55318;52.068;5.188;2024-03-08T07:40:12;27.2;;;13.8;;
68375;SDS011;55318;52.068;5.188;2024-03-08T07:43:25;28.8;;;14.9;;
68375;SDS011;55318;52.068;5.188;2024-03-08T07:45:01;21.1;;;13.8;;
68375;SDS011;55318;52.068;5.188;2024-03-08T07:49:50;23.4;;;13.9;;
68375;SDS011;55318;52.068;5.188;2024-03-08T07:51:26;23.9;;;14.3;;
68375;SDS011;55318;52.068;5.188;2024-03-08T07:53:02;24.3;;;14.3;;
68375;SDS011;55318;52.068;5.188;2024-03-08T07:54:38;27.1;;;14.2;;
68375;SDS011;55318;52.068;5.188;2024-03-08T07:57:51;30.8;;;16.2;;
68375;SDS011;55318;52.068;5.188;2024-03-08T07:59:28;24.9;;;14.7;;
68375;SDS011;55318;52.068;5.188;2024-03-08T08:01:04;26.1;;;13.8;;
68375;SDS011;55318;52.068;5.188;2024-03-08T08:04:16;24.2;;;14.8;;
68375;SDS011;55318;52.068;5.188;2024-03-08T08:05:52;24.6;;;15.1;;
68375;SDS011;55318;52.068;5.188;2024-03-08T08:07:28;25.7;;;14.6;;
68375;SDS011;55318;52.068;5.188;2024-03-08T08:10:41;25.0;;;13.9;;
68375;SDS011;55318;52.068;5.188;2024-03-08T08:12:17;24.9;;;14.1;;
68375;SDS011;55318;52.068;5.188;2024-03-08T08:13:53;24.6;;;14.6;;
68375;SDS011;55318;52.068;5.188;2024-03-08T08:15:29;24.1;;;14.2;;
68375;SDS011;55318;52.068;5.188;2024-03-08T08:18:41;25.7;;;14.0;;
68375;SDS011;55318;52.068;5.188;2024-03-08T08:20:17;26.7;;;15.3;;
68375;SDS011;55318;52.068;5.188;2024-03-08T08:21:53;22.5;;;13.4;;
68375;SDS011;55318;52.068;5.188;2024-03-08T08:25:06;24.4;;;14.9;;
68375;SDS011;55318;52.068;5.188;2024-03-08T08:26:43;24.6;;;14.3;;
68375;SDS011;55318;52.068;5.188;2024-03-08T08:28:19;27.2;;;14.9;;
68375;SDS011;55318;52.068;5.188;2024-03-08T08:31:31;24.1;;;14.3;;
68375;SDS011;55318;52.068;5.188;2024-03-08T08:33:08;27.7;;;15.1;;
68375;SDS011;55318;52.068;5.188;2024-03-08T08:37:56;25.9;;;15.0;;
68375;SDS011;55318;52.068;5.188;2024-03-08T08:39:32;27.2;;;15.0;;
68375;SDS011;55318;52.068;5.188;2024-03-08T08:41:09;24.9;;;14.9;;
68375;SDS011;55318;52.068;5.188;2024-03-08T08:42:45;24.9;;;14.8;;
68375;SDS011;55318;52.068;5.188;2024-03-08T08:45:57;26.6;;;15.0;;
68375;SDS011;55318;52.068;5.188;2024-03-08T08:47:33;25.7;;;14.1;;
68375;SDS011;55318;52.068;5.188;2024-03-08T08:49:10;23.7;;;14.8;;
68375;SDS011;55318;52.068;5.188;2024-03-08T08:52:23;24.6;;;14.0;;
68375;SDS011;55318;52.068;5.188;2024-03-08T08:53:59;23.9;;;15.3;;
68375;SDS011;55318;52.068;5.188;2024-03-08T08:55:36;26.4;;;15.6;;
68375;SDS011;55318;52.068;5.188;2024-03-08T08:58:48;25.2;;;14.8;;
68375;SDS011;55318;52.068;5.188;2024-03-08T09:00:24;23.0;;;13.7;;
68375;SDS011;55318;52.068;5.188;2024-03-08T09:02:00;22.4;;;14.2;;
68375;SDS011;55318;52.068;5.188;2024-03-08T09:03:37;24.6;;;14.1;;
68375;SDS011;55318;52.068;5.188;2024-03-08T09:06:49;25.1;;;14.9;;
68375;SDS011;55318;52.068;5.188;2024-03-08T09:08:25;23.9;;;14.3;;
68375;SDS011;55318;52.068;5.188;2024-03-08T09:10:02;24.0;;;14.1;;
68375;SDS011;55318;52.068;5.188;2024-03-08T09:13:15;23.0;;;14.9;;
68375;SDS011;55318;52.068;5.188;2024-03-08T09:14:51;24.6;;;13.4;;
68375;SDS011;55318;52.068;5.188;2024-03-08T09:16:28;25.0;;;14.8;;
68375;SDS011;55318;52.068;5.188;2024-03-08T09:19:41;20.41;;;14.5;;
68375;SDS011;55318;52.068;5.188;2024-03-08T09:21:17;26.3;;;14.5;;
68375;SDS011;55318;52.068;5.188;2024-03-08T09:22:53;21.9;;;14.1;;
68375;SDS011;55318;52.068;5.188;2024-03-08T09:26:06;21.8;;;13.8;;
68375;SDS011;55318;52.068;5.188;2024-03-08T09:27:42;28.1;;;14.8;;
68375;SDS011;55318;52.068;5.188;2024-03-08T09:29:18;23.3;;;13.7;;
68375;SDS011;55318;52.068;5.188;2024-03-08T09:30:54;21.8;;;13.2;;
68375;SDS011;55318;52.068;5.188;2024-03-08T09:34:06;25.9;;;14.1;;
68375;SDS011;55318;52.068;5.188;2024-03-08T09:35:42;25.2;;;14.0;;
68375;SDS011;55318;52.068;5.188;2024-03-08T09:37:18;23.0;;;13.9;;
68375;SDS011;55318;52.068;5.188;2024-03-08T09:40:31;24.7;;;14.6;;
68375;SDS011;55318;52.068;5.188;2024-03-08T09:42:07;23.8;;;14.3;;
68375;SDS011;55318;52.068;5.188;2024-03-08T09:43:44;24.5;;;13.3;;
68375;SDS011;55318;52.068;5.188;2024-03-08T09:46:57;24.6;;;13.8;;
68375;SDS011;55318;52.068;5.188;2024-03-08T09:48:34;21.0;;;13.4;;
68375;SDS011;55318;52.068;5.188;2024-03-08T09:50:11;21.5;;;13.6;;
68375;SDS011;55318;52.068;5.188;2024-03-08T09:51:47;24.2;;;14.2;;
68375;SDS011;55318;52.068;5.188;2024-03-08T09:55:02;21.7;;;13.8;;
68375;SDS011;55318;52.068;5.188;2024-03-08T09:56:40;21.3;;;13.6;;
68375;SDS011;55318;52.068;5.188;2024-03-08T09:58:18;22.5;;;13.5;;
68375;SDS011;55318;52.068;5.188;2024-03-08T10:01:30;23.7;;;13.4;;
68375;SDS011;55318;52.068;5.188;2024-03-08T10:03:06;26.3;;;14.3;;
68375;SDS011;55318;52.068;5.188;2024-03-08T10:04:43;20.6;;;13.6;;
68375;SDS011;55318;52.068;5.188;2024-03-08T10:07:59;22.4;;;14.0;;
68375;SDS011;55318;52.068;5.188;2024-03-08T10:09:35;25.0;;;14.1;;
68375;SDS011;55318;52.068;5.188;2024-03-08T10:11:11;22.6;;;13.5;;
68375;SDS011;55318;52.068;5.188;2024-03-08T10:12:47;22.0;;;13.3;;
68375;SDS011;55318;52.068;5.188;2024-03-08T10:16:01;21.0;;;13.4;;
68375;SDS011;55318;52.068;5.188;2024-03-08T10:17:39;21.6;;;13.2;;
68375;SDS011;55318;52.068;5.188;2024-03-08T10:19:15;25.0;;;13.4;;
68375;SDS011;55318;52.068;5.188;2024-03-08T10:22:41;22.1;;;13.3;;
68375;SDS011;55318;52.068;5.188;2024-03-08T10:24:17;21.0;;;12.8;;
68375;SDS011;55318;52.068;5.188;2024-03-08T10:25:53;25.5;;;12.8;;
68375;SDS011;55318;52.068;5.188;2024-03-08T10:27:29;20.9;;;12.6;;
68375;SDS011;55318;52.068;5.188;2024-03-08T10:30:46;20.5;;;12.2;;
68375;SDS011;55318;52.068;5.188;2024-03-08T10:32:22;23.7;;;13.4;;
68375;SDS011;55318;52.068;5.188;2024-03-08T10:33:58;20.5;;;12.2;;
68375;SDS011;55318;52.068;5.188;2024-03-08T10:37:12;20.9;;;13.2;;
68375;SDS011;55318;52.068;5.188;2024-03-08T10:38:51;19.5;;;12.0;;
68375;SDS011;55318;52.068;5.188;2024-03-08T10:40:28;17.91;;;11.5;;
68375;SDS011;55318;52.068;5.188;2024-03-08T10:42:05;19.11;;;11.7;;
68375;SDS011;55318;52.068;5.188;2024-03-08T10:45:54;18.61;;;10.4;;
68375;SDS011;55318;52.068;5.188;2024-03-08T10:47:44;22.5;;;12.9;;
68375;SDS011;55318;52.068;5.188;2024-03-08T10:49:27;20.0;;;11.3;;
68375;SDS011;55318;52.068;5.188;2024-03-08T10:51:08;21.1;;;11.7;;
68375;SDS011;55318;52.068;5.188;2024-03-08T10:52:48;20.11;;;11.8;;
68375;SDS011;55318;52.068;5.188;2024-03-08T10:56:03;17.11;;;10.9;;
68375;SDS011;55318;52.068;5.188;2024-03-08T10:57:40;18.5;;;11.1;;
68375;SDS011;55318;52.068;5.188;2024-03-08T10:59:16;16.9;;;10.5;;
68375;SDS011;55318;52.068;5.188;2024-03-08T11:00:53;20.5;;;10.9;;
68375;SDS011;55318;52.068;5.188;2024-03-08T11:04:07;20.41;;;10.4;;
68375;SDS011;55318;52.068;5.188;2024-03-08T11:05:43;17.5;;;10.4;;
68375;SDS011;55318;52.068;5.188;2024-03-08T11:07:19;16.3;;;10.21;;
68375;SDS011;55318;52.068;5.188;2024-03-08T11:10:32;15.9;;;10.21;;
68375;SDS011;55318;52.068;5.188;2024-03-08T11:12:20;16.2;;;10.7;;
68375;SDS011;55318;52.068;5.188;2024-03-08T11:13:59;18.11;;;10.8;;
68375;SDS011;55318;52.068;5.188;2024-03-08T11:15:36;16.3;;;10.4;;
68375;SDS011;55318;52.068;5.188;2024-03-08T11:18:53;16.7;;;10.3;;
68375;SDS011;55318;52.068;5.188;2024-03-08T11:20:29;14.9;;;10.6;;
68375;SDS011;55318;52.068;5.188;2024-03-08T11:22:05;14.5;;;9.5;;
68375;SDS011;55318;52.068;5.188;2024-03-08T11:25:30;18.2;;;10.5;;
68375;SDS011;55318;52.068;5.188;2024-03-08T11:27:16;16.0;;;9.6;;
68375;SDS011;55318;52.068;5.188;2024-03-08T11:28:52;16.7;;;10.4;;
68375;SDS011;55318;52.068;5.188;2024-03-08T11:30:28;15.9;;;9.9;;
68375;SDS011;55318;52.068;5.188;2024-03-08T11:33:43;15.5;;;10.6;;
68375;SDS011;55318;52.068;5.188;2024-03-08T11:35:22;16.3;;;9.81;;
68375;SDS011;55318;52.068;5.188;2024-03-08T11:36:59;15.5;;;9.9;;
68375;SDS011;55318;52.068;5.188;2024-03-08T11:38:36;15.9;;;10.0;;
68375;SDS011;55318;52.068;5.188;2024-03-08T11:41:52;14.5;;;9.21;;
68375;SDS011;55318;52.068;5.188;2024-03-08T11:43:28;15.4;;;9.71;;
68375;SDS011;55318;52.068;5.188;2024-03-08T11:45:08;15.6;;;10.3;;
68375;SDS011;55318;52.068;5.188;2024-03-08T11:48:20;17.11;;;10.7;;
68375;SDS011;55318;52.068;5.188;2024-03-08T11:49:56;16.0;;;9.71;;
68375;SDS011;55318;52.068;5.188;2024-03-08T11:51:32;13.5;;;9.4;;
68375;SDS011;55318;52.068;5.188;2024-03-08T11:53:09;15.8;;;9.81;;
68375;SDS011;55318;52.068;5.188;2024-03-08T11:56:28;14.4;;;9.1;;
68375;SDS011;55318;52.068;5.188;2024-03-08T11:58:04;12.6;;;7.9;;
68375;SDS011;55318;52.068;5.188;2024-03-08T11:59:41;14.1;;;8.5;;
68375;SDS011;55318;52.068;5.188;2024-03-08T12:01:25;11.7;;;8.1;;
68375;SDS011;55318;52.068;5.188;2024-03-08T12:04:38;13.2;;;8.2;;
68375;SDS011;55318;52.068;5.188;2024-03-08T12:06:14;12.2;;;8.1;;
68375;SDS011;55318;52.068;5.188;2024-03-08T12:07:55;12.3;;;8.71;;
68375;SDS011;55318;52.068;5.188;2024-03-08T12:11:08;12.6;;;8.1;;
68375;SDS011;55318;52.068;5.188;2024-03-08T12:12:44;12.7;;;8.6;;
68375;SDS011;55318;52.068;5.188;2024-03-08T12:14:21;12.4;;;8.1;;
68375;SDS011;55318;52.068;5.188;2024-03-08T12:17:34;12.0;;;8.2;;
68375;SDS011;55318;52.068;5.188;2024-03-08T12:19:10;15.6;;;9.1;;
68375;SDS011;55318;52.068;5.188;2024-03-08T12:20:47;14.2;;;8.4;;
68375;SDS011;55318;52.068;5.188;2024-03-08T12:22:24;12.5;;;8.81;;
68375;SDS011;55318;52.068;5.188;2024-03-08T12:25:40;14.2;;;8.6;;
68375;SDS011;55318;52.068;5.188;2024-03-08T12:27:17;13.2;;;9.21;;
68375;SDS011;55318;52.068;5.188;2024-03-08T12:29:00;14.1;;;9.0;;
68375;SDS011;55318;52.068;5.188;2024-03-08T12:30:51;16.0;;;8.6;;
68375;SDS011;55318;52.068;5.188;2024-03-08T12:34:03;19.5;;;9.71;;
68375;SDS011;55318;52.068;5.188;2024-03-08T12:35:40;13.3;;;9.0;;
68375;SDS011;55318;52.068;5.188;2024-03-08T12:37:25;15.1;;;8.4;;
68375;SDS011;55318;52.068;5.188;2024-03-08T12:40:38;14.8;;;9.6;;
68375;SDS011;55318;52.068;5.188;2024-03-08T12:42:16;16.61;;;10.0;;